PWSweather.com
Personal Weather Stations
Station Observations
IMAZOWIE6
WarszawaPL

WarszawaPL

Lat: 52.27957, Lon: 21.05489

Elevation: 100

Station Type: WS1080

http://stacjapogody.waw.pl/

High Low Average
Temperature 37.8°F3.2°C 27.0°F-2.8°C 33.7°F0.9°C
Dew Point 4.6°F-15.2°C -9.6°F-23.1°C -2.0°F-18.9°C
Winds 3.4 mph 5.5 kmh Calm Calm 1.0 mph N1.6 kmh N
Wind Gusts 8.8 mph14.2 kmh 0.6 mph1.0 kmh 4.0 mph6.4 kmh
Humidity 36% 13% 22%
Pressure 29.18 in988.1 mb 28.87 in977.7 mb -
Precipitation 0.00 in0.0 mm - -
Hour Temp Dew Point Humidity Winds Wind Gusts Pressure Precip Precip Rate Daily Precip Total
12:05 AM 35.8°F2.1°C 1.4°F-17.0°C 23% 1.4 mph N2.3 kmh N 3.4 mph5.5 kmh 29.18 in988.1 mb 0.00 in0.0 mm 0.00 in0.0 mm 0.00 in0.0 mm
12:20 AM 35.6°F2.0°C 0.3°F-17.6°C 22% 1.4 mph N2.3 kmh N 2.8 mph4.5 kmh 29.18 in988.1 mb 0.00 in0.0 mm 0.00 in0.0 mm 0.00 in0.0 mm
12:35 AM 35.2°F1.8°C 0.0°F-17.8°C 22% 3.4 mph N5.5 kmh N 4.8 mph7.7 kmh 29.17 in987.8 mb 0.00 in0.0 mm 0.00 in0.0 mm 0.00 in0.0 mm
12:50 AM 35.1°F1.7°C -0.2°F-17.9°C 22% 1.4 mph N2.3 kmh N 2.8 mph4.5 kmh 29.17 in987.8 mb 0.00 in0.0 mm 0.00 in0.0 mm 0.00 in0.0 mm
01:05 AM 34.7°F1.5°C -0.5°F-18.1°C 22% 2.0 mph N3.2 kmh N 4.0 mph6.4 kmh 29.17 in987.8 mb 0.00 in0.0 mm 0.00 in0.0 mm 0.00 in0.0 mm
01:20 AM 34.9°F1.6°C -0.3°F-17.9°C 22% 2.0 mph N3.2 kmh N 4.0 mph6.4 kmh 29.16 in987.5 mb 0.00 in0.0 mm 0.00 in0.0 mm 0.00 in0.0 mm
01:35 AM 34.9°F1.6°C 0.6°F-17.4°C 23% 2.0 mph N3.2 kmh N 4.0 mph6.4 kmh 29.16 in987.5 mb 0.00 in0.0 mm 0.00 in0.0 mm 0.00 in0.0 mm
01:50 AM 34.5°F1.4°C -0.6°F-18.1°C 22% 2.8 mph N4.5 kmh N 5.4 mph8.7 kmh 29.15 in987.1 mb 0.00 in0.0 mm 0.00 in0.0 mm 0.00 in0.0 mm
02:05 AM 34.5°F1.4°C -0.6°F-18.1°C 22% 1.4 mph N2.3 kmh N 4.0 mph6.4 kmh 29.15 in987.1 mb 0.00 in0.0 mm 0.00 in0.0 mm 0.00 in0.0 mm
02:20 AM 34.2°F1.2°C -0.9°F-18.3°C 22% 1.4 mph N2.3 kmh N 3.4 mph5.5 kmh 29.15 in987.1 mb 0.00 in0.0 mm 0.00 in0.0 mm 0.00 in0.0 mm
02:35 AM 34.2°F1.2°C 0.0°F-17.8°C 23% 1.4 mph N2.3 kmh N 4.0 mph6.4 kmh 29.14 in986.8 mb 0.00 in0.0 mm 0.00 in0.0 mm 0.00 in0.0 mm
02:50 AM 34.0°F1.1°C -0.2°F-17.9°C 23% 1.4 mph N2.3 kmh N 2.8 mph4.5 kmh 29.13 in986.5 mb 0.00 in0.0 mm 0.00 in0.0 mm 0.00 in0.0 mm
03:05 AM 34.0°F1.1°C -0.2°F-17.9°C 23% 1.4 mph N2.3 kmh N 3.4 mph5.5 kmh 29.12 in986.1 mb 0.00 in0.0 mm 0.00 in0.0 mm 0.00 in0.0 mm
03:20 AM 34.0°F1.1°C -0.2°F-17.9°C 23% 2.0 mph N3.2 kmh N 4.8 mph7.7 kmh 29.11 in985.8 mb 0.00 in0.0 mm 0.00 in0.0 mm 0.00 in0.0 mm
03:35 AM 34.0°F1.1°C -0.2°F-17.9°C 23% Calm Calm 1.4 mph2.3 kmh 29.11 in985.8 mb 0.00 in0.0 mm 0.00 in0.0 mm 0.00 in0.0 mm
03:50 AM 34.2°F1.2°C -0.9°F-18.3°C 22% 0.6 mph N1.0 kmh N 2.8 mph4.5 kmh 29.10 in985.4 mb 0.00 in0.0 mm 0.00 in0.0 mm 0.00 in0.0 mm
04:05 AM 33.6°F0.9°C -1.4°F-18.6°C 22% 1.4 mph N2.3 kmh N 4.0 mph6.4 kmh 29.09 in985.1 mb 0.00 in0.0 mm 0.00 in0.0 mm 0.00 in0.0 mm
04:20 AM 33.3°F0.7°C -0.8°F-18.2°C 23% 0.6 mph N1.0 kmh N 1.4 mph2.3 kmh 29.09 in985.1 mb 0.00 in0.0 mm 0.00 in0.0 mm 0.00 in0.0 mm
04:35 AM 33.1°F0.6°C 0.0°F-17.8°C 24% 1.4 mph N2.3 kmh N 3.4 mph5.5 kmh 29.08 in984.8 mb 0.00 in0.0 mm 0.00 in0.0 mm 0.00 in0.0 mm
04:50 AM 32.9°F0.5°C -0.2°F-17.9°C 24% 1.4 mph N2.3 kmh N 4.8 mph7.7 kmh 29.06 in984.1 mb 0.00 in0.0 mm 0.00 in0.0 mm 0.00 in0.0 mm
05:05 AM 32.9°F0.5°C -0.2°F-17.9°C 24% 2.0 mph N3.2 kmh N 4.0 mph6.4 kmh 29.05 in983.7 mb 0.00 in0.0 mm 0.00 in0.0 mm 0.00 in0.0 mm
05:20 AM 32.9°F0.5°C -0.2°F-17.9°C 24% 1.4 mph N2.3 kmh N 4.0 mph6.4 kmh 29.05 in983.7 mb 0.00 in0.0 mm 0.00 in0.0 mm 0.00 in0.0 mm
05:35 AM 32.9°F0.5°C -1.1°F-18.4°C 23% 2.8 mph N4.5 kmh N 7.4 mph11.9 kmh 29.03 in983.1 mb 0.00 in0.0 mm 0.00 in0.0 mm 0.00 in0.0 mm
05:50 AM 32.7°F0.4°C -1.2°F-18.4°C 23% 1.4 mph N2.3 kmh N 4.0 mph6.4 kmh 29.04 in983.4 mb 0.00 in0.0 mm 0.00 in0.0 mm 0.00 in0.0 mm
06:05 AM 32.2°F0.1°C -2.6°F-19.2°C 22% 1.4 mph N2.3 kmh N 4.8 mph7.7 kmh 29.03 in983.1 mb 0.00 in0.0 mm 0.00 in0.0 mm 0.00 in0.0 mm
06:20 AM 30.9°F-0.6°C -2.7°F-19.3°C 23% 2.0 mph N3.2 kmh N 7.4 mph11.9 kmh 29.03 in983.1 mb 0.00 in0.0 mm 0.00 in0.0 mm 0.00 in0.0 mm
06:35 AM 29.8°F-1.2°C -1.1°F-18.4°C 26% 2.0 mph N3.2 kmh N 6.2 mph10.0 kmh 29.03 in983.1 mb 0.00 in0.0 mm 0.00 in0.0 mm 0.00 in0.0 mm
06:50 AM 28.9°F-1.7°C 0.4°F-17.6°C 29% 2.8 mph N4.5 kmh N 4.8 mph7.7 kmh 29.03 in983.1 mb 0.00 in0.0 mm 0.00 in0.0 mm 0.00 in0.0 mm
07:05 AM 28.2°F-2.1°C 0.5°F-17.5°C 30% 2.0 mph N3.2 kmh N 4.8 mph7.7 kmh 29.03 in983.1 mb 0.00 in0.0 mm 0.00 in0.0 mm 0.00 in0.0 mm
07:20 AM 27.5°F-2.5°C 1.3°F-17.1°C 32% 2.0 mph N3.2 kmh N 6.2 mph10.0 kmh 29.02 in982.7 mb 0.00 in0.0 mm 0.00 in0.0 mm 0.00 in0.0 mm
07:35 AM 27.3°F-2.6°C 1.8°F-16.8°C 33% 2.0 mph N3.2 kmh N 4.8 mph7.7 kmh 29.00 in982.1 mb 0.00 in0.0 mm 0.00 in0.0 mm 0.00 in0.0 mm
07:50 AM 27.1°F-2.7°C 2.3°F-16.5°C 34% 2.0 mph N3.2 kmh N 4.0 mph6.4 kmh 29.00 in982.1 mb 0.00 in0.0 mm 0.00 in0.0 mm 0.00 in0.0 mm
08:05 AM 27.1°F-2.7°C 2.9°F-16.2°C 35% 2.0 mph N3.2 kmh N 6.2 mph10.0 kmh 28.98 in981.4 mb 0.00 in0.0 mm 0.00 in0.0 mm 0.00 in0.0 mm
08:20 AM 27.1°F-2.7°C 3.5°F-15.8°C 36% 2.0 mph N3.2 kmh N 6.8 mph10.9 kmh 28.99 in981.7 mb 0.00 in0.0 mm 0.00 in0.0 mm 0.00 in0.0 mm
08:35 AM 27.0°F-2.8°C 3.3°F-15.9°C 36% 2.8 mph N4.5 kmh N 6.8 mph10.9 kmh 28.98 in981.4 mb 0.00 in0.0 mm 0.00 in0.0 mm 0.00 in0.0 mm
08:50 AM 27.0°F-2.8°C 2.7°F-16.3°C 35% 2.0 mph N3.2 kmh N 5.4 mph8.7 kmh 28.98 in981.4 mb 0.00 in0.0 mm 0.00 in0.0 mm 0.00 in0.0 mm
09:05 AM 27.0°F-2.8°C 1.5°F-16.9°C 33% 2.0 mph N3.2 kmh N 5.4 mph8.7 kmh 28.98 in981.4 mb 0.00 in0.0 mm 0.00 in0.0 mm 0.00 in0.0 mm
09:20 AM 27.1°F-2.7°C 1.0°F-17.2°C 32% 2.0 mph N3.2 kmh N 4.8 mph7.7 kmh 28.96 in980.7 mb 0.00 in0.0 mm 0.00 in0.0 mm 0.00 in0.0 mm
09:35 AM 27.5°F-2.5°C 1.3°F-17.1°C 32% 2.0 mph N3.2 kmh N 5.4 mph8.7 kmh 28.95 in980.4 mb 0.00 in0.0 mm 0.00 in0.0 mm 0.00 in0.0 mm
09:50 AM 27.5°F-2.5°C 1.3°F-17.1°C 32% 2.0 mph N3.2 kmh N 4.8 mph7.7 kmh 28.95 in980.4 mb 0.00 in0.0 mm 0.00 in0.0 mm 0.00 in0.0 mm
10:05 AM 27.7°F-2.4°C 1.4°F-17.0°C 32% 2.0 mph N3.2 kmh N 4.0 mph6.4 kmh 28.94 in980.0 mb 0.00 in0.0 mm 0.00 in0.0 mm 0.00 in0.0 mm
10:20 AM 27.9°F-2.3°C 2.3°F-16.5°C 33% 1.4 mph N2.3 kmh N 4.8 mph7.7 kmh 28.94 in980.0 mb 0.00 in0.0 mm 0.00 in0.0 mm 0.00 in0.0 mm
10:35 AM 28.0°F-2.2°C 3.1°F-16.1°C 34% 3.4 mph N5.5 kmh N 5.4 mph8.7 kmh 28.93 in979.7 mb 0.00 in0.0 mm 0.00 in0.0 mm 0.00 in0.0 mm
10:50 AM 28.6°F-1.9°C 4.2°F-15.4°C 35% 2.0 mph N3.2 kmh N 5.4 mph8.7 kmh 28.92 in979.3 mb 0.00 in0.0 mm 0.00 in0.0 mm 0.00 in0.0 mm
11:05 AM 29.1°F-1.6°C 4.6°F-15.2°C 35% 2.8 mph N4.5 kmh N 8.8 mph14.2 kmh 28.92 in979.3 mb 0.00 in0.0 mm 0.00 in0.0 mm 0.00 in0.0 mm
11:20 AM 29.7°F-1.3°C 3.8°F-15.7°C 33% 1.4 mph N2.3 kmh N 3.4 mph5.5 kmh 28.92 in979.3 mb 0.00 in0.0 mm 0.00 in0.0 mm 0.00 in0.0 mm
11:35 AM 30.6°F-0.8°C 3.3°F-15.9°C 31% 2.0 mph N3.2 kmh N 4.8 mph7.7 kmh 28.92 in979.3 mb 0.00 in0.0 mm 0.00 in0.0 mm 0.00 in0.0 mm
11:50 AM 31.5°F-0.3°C 2.6°F-16.3°C 29% 0.6 mph N1.0 kmh N 2.0 mph3.2 kmh 28.91 in979.0 mb 0.00 in0.0 mm 0.00 in0.0 mm 0.00 in0.0 mm
12:05 PM 32.0°F0.0°C -0.1°F-17.8°C 25% 2.0 mph N3.2 kmh N 4.0 mph6.4 kmh 28.90 in978.7 mb 0.00 in0.0 mm 0.00 in0.0 mm 0.00 in0.0 mm
12:20 PM 32.9°F0.5°C -1.1°F-18.4°C 23% 0.6 mph N1.0 kmh N 2.8 mph4.5 kmh 28.91 in979.0 mb 0.00 in0.0 mm 0.00 in0.0 mm 0.00 in0.0 mm
12:35 PM 33.8°F1.0°C -1.2°F-18.4°C 22% 0.6 mph N1.0 kmh N 2.0 mph3.2 kmh 28.90 in978.7 mb 0.00 in0.0 mm 0.00 in0.0 mm 0.00 in0.0 mm
12:50 PM 34.2°F1.2°C -4.0°F-20.0°C 19% Calm Calm 2.8 mph4.5 kmh 28.89 in978.3 mb 0.00 in0.0 mm 0.00 in0.0 mm 0.00 in0.0 mm
01:05 PM 34.9°F1.6°C -4.5°F-20.3°C 18% 0.6 mph N1.0 kmh N 2.8 mph4.5 kmh 28.89 in978.3 mb 0.00 in0.0 mm 0.00 in0.0 mm 0.00 in0.0 mm
01:20 PM 36.0°F2.2°C -4.8°F-20.4°C 17% 1.4 mph N2.3 kmh N 2.8 mph4.5 kmh 28.89 in978.3 mb 0.00 in0.0 mm 0.00 in0.0 mm 0.00 in0.0 mm
01:35 PM 36.9°F2.7°C -4.1°F-20.1°C 17% 1.4 mph N2.3 kmh N 3.4 mph5.5 kmh 28.88 in978.0 mb 0.00 in0.0 mm 0.00 in0.0 mm 0.00 in0.0 mm
01:50 PM 37.4°F3.0°C -4.9°F-20.5°C 16% 1.4 mph N2.3 kmh N 2.8 mph4.5 kmh 28.89 in978.3 mb 0.00 in0.0 mm 0.00 in0.0 mm 0.00 in0.0 mm
02:05 PM 37.6°F3.1°C -6.0°F-21.1°C 15% 0.6 mph N1.0 kmh N 3.4 mph5.5 kmh 28.88 in978.0 mb 0.00 in0.0 mm 0.00 in0.0 mm 0.00 in0.0 mm
02:20 PM 37.8°F3.2°C -7.3°F-21.8°C 14% 0.6 mph N1.0 kmh N 2.8 mph4.5 kmh 28.88 in978.0 mb 0.00 in0.0 mm 0.00 in0.0 mm 0.00 in0.0 mm
02:35 PM 37.2°F2.9°C -9.2°F-22.9°C 13% Calm Calm 0.6 mph1.0 kmh 28.88 in978.0 mb 0.00 in0.0 mm 0.00 in0.0 mm 0.00 in0.0 mm
02:50 PM 37.2°F2.9°C -9.2°F-22.9°C 13% 2.0 mph N3.2 kmh N 4.8 mph7.7 kmh 28.87 in977.7 mb 0.00 in0.0 mm 0.00 in0.0 mm 0.00 in0.0 mm
03:05 PM 36.9°F2.7°C -9.5°F-23.1°C 13% 0.6 mph N1.0 kmh N 4.0 mph6.4 kmh 28.87 in977.7 mb 0.00 in0.0 mm 0.00 in0.0 mm 0.00 in0.0 mm
03:20 PM 36.7°F2.6°C -9.6°F-23.1°C 13% Calm Calm 2.0 mph3.2 kmh 28.87 in977.7 mb 0.00 in0.0 mm 0.00 in0.0 mm 0.00 in0.0 mm
03:35 PM 36.5°F2.5°C -8.3°F-22.4°C 14% 1.4 mph N2.3 kmh N 4.0 mph6.4 kmh 28.87 in977.7 mb 0.00 in0.0 mm 0.00 in0.0 mm 0.00 in0.0 mm
03:50 PM 36.3°F2.4°C -8.5°F-22.5°C 14% 0.6 mph N1.0 kmh N 2.0 mph3.2 kmh 28.87 in977.7 mb 0.00 in0.0 mm 0.00 in0.0 mm 0.00 in0.0 mm
04:05 PM 36.5°F2.5°C -6.9°F-21.6°C 15% 2.0 mph N3.2 kmh N 6.2 mph10.0 kmh 28.87 in977.7 mb 0.00 in0.0 mm 0.00 in0.0 mm 0.00 in0.0 mm
04:20 PM 36.3°F2.4°C -8.5°F-22.5°C 14% 0.6 mph N1.0 kmh N 3.4 mph5.5 kmh 28.87 in977.7 mb 0.00 in0.0 mm 0.00 in0.0 mm 0.00 in0.0 mm
04:35 PM 36.0°F2.2°C -7.4°F-21.9°C 15% 1.4 mph N2.3 kmh N 3.4 mph5.5 kmh 28.87 in977.7 mb 0.00 in0.0 mm 0.00 in0.0 mm 0.00 in0.0 mm
04:50 PM 35.6°F2.0°C -7.6°F-22.0°C 15% 0.6 mph N1.0 kmh N 2.0 mph3.2 kmh 28.87 in977.7 mb 0.00 in0.0 mm 0.00 in0.0 mm 0.00 in0.0 mm
05:05 PM 35.8°F2.1°C -6.2°F-21.2°C 16% Calm Calm 0.6 mph1.0 kmh 28.87 in977.7 mb 0.00 in0.0 mm 0.00 in0.0 mm 0.00 in0.0 mm
05:20 PM 35.6°F2.0°C -6.3°F-21.3°C 16% Calm Calm 2.0 mph3.2 kmh 28.88 in978.0 mb 0.00 in0.0 mm 0.00 in0.0 mm 0.00 in0.0 mm
05:35 PM 35.8°F2.1°C -4.9°F-20.5°C 17% Calm Calm 2.0 mph3.2 kmh 28.89 in978.3 mb 0.00 in0.0 mm 0.00 in0.0 mm 0.00 in0.0 mm
05:50 PM 36.0°F2.2°C -4.8°F-20.4°C 17% 1.4 mph N2.3 kmh N 2.8 mph4.5 kmh 28.90 in978.7 mb 0.00 in0.0 mm 0.00 in0.0 mm 0.00 in0.0 mm
06:05 PM 36.3°F2.4°C -3.3°F-19.6°C 18% 0.6 mph N1.0 kmh N 2.8 mph4.5 kmh 28.90 in978.7 mb 0.00 in0.0 mm 0.00 in0.0 mm 0.00 in0.0 mm
06:20 PM 36.3°F2.4°C -3.3°F-19.6°C 18% 0.6 mph N1.0 kmh N 3.4 mph5.5 kmh 28.91 in979.0 mb 0.00 in0.0 mm 0.00 in0.0 mm 0.00 in0.0 mm
06:35 PM 36.1°F2.3°C -3.5°F-19.7°C 18% Calm Calm 2.8 mph4.5 kmh 28.90 in978.7 mb 0.00 in0.0 mm 0.00 in0.0 mm 0.00 in0.0 mm
06:50 PM 36.7°F2.6°C -3.0°F-19.4°C 18% 1.4 mph N2.3 kmh N 4.0 mph6.4 kmh 28.90 in978.7 mb 0.00 in0.0 mm 0.00 in0.0 mm 0.00 in0.0 mm
07:05 PM 36.1°F2.3°C -3.5°F-19.7°C 18% 2.0 mph N3.2 kmh N 4.0 mph6.4 kmh 28.91 in979.0 mb 0.00 in0.0 mm 0.00 in0.0 mm 0.00 in0.0 mm
07:20 PM 35.8°F2.1°C -3.8°F-19.9°C 18% Calm Calm 1.4 mph2.3 kmh 28.91 in979.0 mb 0.00 in0.0 mm 0.00 in0.0 mm 0.00 in0.0 mm
07:35 PM 36.0°F2.2°C -3.6°F-19.8°C 18% Calm Calm 1.4 mph2.3 kmh 28.91 in979.0 mb 0.00 in0.0 mm 0.00 in0.0 mm 0.00 in0.0 mm
07:50 PM 36.1°F2.3°C -2.4°F-19.1°C 19% Calm Calm 2.0 mph3.2 kmh 28.90 in978.7 mb 0.00 in0.0 mm 0.00 in0.0 mm 0.00 in0.0 mm
08:05 PM 36.0°F2.2°C -2.5°F-19.2°C 19% Calm Calm 2.0 mph3.2 kmh 28.91 in979.0 mb 0.00 in0.0 mm 0.00 in0.0 mm 0.00 in0.0 mm
08:20 PM 35.8°F2.1°C -2.6°F-19.2°C 19% Calm Calm 0.6 mph1.0 kmh 28.90 in978.7 mb 0.00 in0.0 mm 0.00 in0.0 mm 0.00 in0.0 mm
08:35 PM 36.3°F2.4°C -2.2°F-19.0°C 19% 0.6 mph N1.0 kmh N 2.0 mph3.2 kmh 28.91 in979.0 mb 0.00 in0.0 mm 0.00 in0.0 mm 0.00 in0.0 mm
08:50 PM 36.0°F2.2°C -2.5°F-19.2°C 19% 0.6 mph N1.0 kmh N 2.8 mph4.5 kmh 28.91 in979.0 mb 0.00 in0.0 mm 0.00 in0.0 mm 0.00 in0.0 mm
09:05 PM 36.1°F2.3°C -2.4°F-19.1°C 19% 1.4 mph N2.3 kmh N 3.4 mph5.5 kmh 28.91 in979.0 mb 0.00 in0.0 mm 0.00 in0.0 mm 0.00 in0.0 mm
09:20 PM 36.7°F2.6°C -1.9°F-18.8°C 19% Calm Calm 0.6 mph1.0 kmh 28.91 in979.0 mb 0.00 in0.0 mm 0.00 in0.0 mm 0.00 in0.0 mm
09:35 PM 36.7°F2.6°C -1.9°F-18.8°C 19% Calm Calm 1.4 mph2.3 kmh 28.91 in979.0 mb 0.00 in0.0 mm 0.00 in0.0 mm 0.00 in0.0 mm
09:50 PM 36.7°F2.6°C -3.0°F-19.4°C 18% 0.6 mph N1.0 kmh N 2.0 mph3.2 kmh 28.91 in979.0 mb 0.00 in0.0 mm 0.00 in0.0 mm 0.00 in0.0 mm
10:05 PM 36.9°F2.7°C -2.9°F-19.4°C 18% 0.6 mph N1.0 kmh N 2.8 mph4.5 kmh 28.92 in979.3 mb 0.00 in0.0 mm 0.00 in0.0 mm 0.00 in0.0 mm
10:20 PM 37.6°F3.1°C -2.3°F-19.1°C 18% 1.4 mph N2.3 kmh N 3.4 mph5.5 kmh 28.92 in979.3 mb 0.00 in0.0 mm 0.00 in0.0 mm 0.00 in0.0 mm
10:35 PM 37.4°F3.0°C -3.6°F-19.8°C 17% 2.8 mph N4.5 kmh N 5.4 mph8.7 kmh 28.92 in979.3 mb 0.00 in0.0 mm 0.00 in0.0 mm 0.00 in0.0 mm
10:50 PM 37.8°F3.2°C -3.3°F-19.6°C 17% 1.4 mph N2.3 kmh N 4.0 mph6.4 kmh 28.92 in979.3 mb 0.00 in0.0 mm 0.00 in0.0 mm 0.00 in0.0 mm
11:05 PM 37.6°F3.1°C -4.7°F-20.4°C 16% 1.4 mph N2.3 kmh N 3.4 mph5.5 kmh 28.92 in979.3 mb 0.00 in0.0 mm 0.00 in0.0 mm 0.00 in0.0 mm
11:20 PM 37.0°F2.8°C -6.5°F-21.4°C 15% 1.4 mph N2.3 kmh N 2.8 mph4.5 kmh 28.92 in979.3 mb 0.00 in0.0 mm 0.00 in0.0 mm 0.00 in0.0 mm
11:35 PM 37.0°F2.8°C -6.5°F-21.4°C 15% 1.4 mph N2.3 kmh N 3.4 mph5.5 kmh 28.93 in979.7 mb 0.00 in0.0 mm 0.00 in0.0 mm 0.00 in0.0 mm
11:50 PM 37.2°F2.9°C -6.3°F-21.3°C 15% 1.4 mph N2.3 kmh N 2.8 mph4.5 kmh 28.93 in979.7 mb 0.00 in0.0 mm 0.00 in0.0 mm 0.00 in0.0 mm